createdAt,value
2018-09-28T00:00:57.049Z,17.90
2018-09-28T00:06:00.777Z,19.27
2018-09-28T00:11:04.565Z,22.07
2018-09-28T00:16:08.291Z,19.63
2018-09-28T00:21:12.017Z,23.07
2018-09-28T00:26:15.748Z,19.33
2018-09-28T00:31:19.482Z,16.40
2018-09-28T00:36:23.211Z,21.90
2018-09-28T00:41:26.934Z,24.20
2018-09-28T00:46:30.664Z,27.10
2018-09-28T00:51:34.399Z,35.30
2018-09-28T00:56:38.131Z,17.43
2018-09-28T01:01:41.884Z,24.73
2018-09-28T01:06:45.644Z,23.43
2018-09-28T01:11:49.366Z,23.40
2018-09-28T01:16:53.108Z,26.60
2018-09-28T01:21:56.815Z,24.43
2018-09-28T01:27:00.552Z,26.73
2018-09-28T01:32:04.447Z,29.87
2018-09-28T01:37:08.303Z,22.67
2018-09-28T01:42:12.039Z,34.17
2018-09-28T01:47:15.775Z,27.37
2018-09-28T01:52:19.494Z,23.27
2018-09-28T01:57:23.213Z,23.43
2018-09-28T02:02:27.170Z,16.83
2018-09-28T02:07:30.900Z,14.97
2018-09-28T02:12:34.750Z,7.30
2018-09-28T02:17:38.443Z,8.57
2018-09-28T02:22:42.135Z,9.73
2018-09-28T02:27:45.931Z,9.83
2018-09-28T02:32:49.750Z,7.47
2018-09-28T02:37:53.452Z,11.10
2018-09-28T02:42:57.164Z,4.90
2018-09-28T02:48:00.888Z,4.93
2018-09-28T02:53:04.637Z,4.70
2018-09-28T02:58:08.341Z,3.77
2018-09-28T03:03:12.123Z,4.33
2018-09-28T03:08:15.842Z,8.17
2018-09-28T03:13:19.551Z,14.30
2018-09-28T03:18:23.271Z,11.87
2018-09-28T03:23:26.989Z,7.60
2018-09-28T03:28:30.722Z,5.03
2018-09-28T03:33:34.463Z,6.97
2018-09-28T03:38:38.155Z,7.00
2018-09-28T03:43:41.991Z,14.03
2018-09-28T03:48:45.716Z,10.30
2018-09-28T03:53:49.411Z,6.37
2018-09-28T03:58:53.131Z,9.50
2018-09-28T04:03:56.859Z,4.07
2018-09-28T04:09:00.576Z,6.23
2018-09-28T04:14:04.302Z,7.80
2018-09-28T04:19:08.043Z,11.17
2018-09-28T04:24:11.760Z,6.70
2018-09-28T04:29:15.480Z,16.53
2018-09-28T04:34:19.207Z,7.63
2018-09-28T04:39:22.927Z,15.03
2018-09-28T04:44:26.640Z,11.90
2018-09-28T04:49:30.375Z,14.20
2018-09-28T04:54:34.105Z,11.10
2018-09-28T04:59:37.903Z,9.20
2018-09-28T05:04:41.615Z,14.40
2018-09-28T05:09:45.335Z,11.63
2018-09-28T05:14:49.063Z,12.30
2018-09-28T05:19:52.884Z,14.40
2018-09-28T05:24:56.603Z,11.17
2018-09-28T05:30:00.411Z,18.73
2018-09-28T05:35:04.169Z,17.97
2018-09-28T05:40:07.866Z,13.40
2018-09-28T05:45:11.595Z,14.20
2018-09-28T05:50:15.316Z,9.73
2018-09-28T05:55:19.135Z,23.73
2018-09-28T06:00:28.227Z,13.10
2018-09-28T06:05:36.550Z,14.93
2018-09-28T06:10:40.202Z,16.63
2018-09-28T06:15:43.899Z,10.10
2018-09-28T06:20:47.928Z,10.63
2018-09-28T06:25:51.693Z,13.23
2018-09-28T06:30:55.375Z,16.63
2018-09-28T06:35:59.178Z,14.17
2018-09-28T06:41:02.879Z,6.33
2018-09-28T06:46:06.622Z,13.03
2018-09-28T06:51:10.373Z,10.43
2018-09-28T06:56:14.096Z,6.80
2018-09-28T07:01:17.815Z,13.90
2018-09-28T07:06:21.605Z,13.60
2018-09-28T07:11:25.284Z,12.10
2018-09-28T07:16:29.091Z,8.60
2018-09-28T07:21:32.704Z,13.37
2018-09-28T07:26:36.475Z,16.50
2018-09-28T07:31:40.187Z,15.80
2018-09-28T07:36:44.050Z,11.87
2018-09-28T07:41:48.394Z,14.43
2018-09-28T07:46:52.893Z,10.00
2018-09-28T07:51:56.699Z,7.80
2018-09-28T07:57:00.411Z,5.70
2018-09-28T08:02:04.178Z,10.60
2018-09-28T08:07:07.928Z,9.07
2018-09-28T08:12:11.656Z,16.97
2018-09-28T08:17:15.395Z,7.43
2018-09-28T08:22:19.143Z,10.17
2018-09-28T08:27:22.947Z,9.97
2018-09-28T08:32:26.660Z,10.93
2018-09-28T08:37:30.367Z,7.83
2018-09-28T08:42:34.081Z,15.00
2018-09-28T08:47:37.803Z,7.43
2018-09-28T08:52:41.531Z,11.00
2018-09-28T08:57:45.258Z,9.90
2018-09-28T09:02:49.006Z,11.00
2018-09-28T09:07:52.760Z,7.73
2018-09-28T09:12:56.483Z,7.30
2018-09-28T09:18:00.404Z,9.83
2018-09-28T09:23:04.015Z,5.70
2018-09-28T09:28:07.986Z,5.97
2018-09-28T09:33:11.776Z,4.70
2018-09-28T09:38:15.775Z,6.23
2018-09-28T09:43:19.646Z,6.17
2018-09-28T09:48:23.592Z,3.60
2018-09-28T09:53:27.296Z,9.93
2018-09-28T09:58:31.005Z,11.70
2018-09-28T10:03:40.443Z,8.80
2018-09-28T10:08:44.171Z,7.53
2018-09-28T10:13:47.904Z,6.17
2018-09-28T10:18:51.615Z,8.07
2018-09-28T10:23:55.340Z,6.67
2018-09-28T10:28:59.061Z,5.00
2018-09-28T10:34:02.780Z,7.53
2018-09-28T10:39:07.301Z,4.37
2018-09-28T10:44:11.120Z,6.33
2018-09-28T10:49:14.839Z,8.43
2018-09-28T10:54:18.575Z,3.50
2018-09-28T10:59:22.319Z,3.50
2018-09-28T11:04:26.109Z,8.43
2018-09-28T11:09:29.833Z,6.07
2018-09-28T11:14:33.521Z,5.00
2018-09-28T11:19:37.287Z,3.03
2018-09-28T11:24:41.028Z,4.40
2018-09-28T11:29:44.812Z,5.50
2018-09-28T11:34:48.558Z,5.83
2018-09-28T11:39:52.288Z,4.87
2018-09-28T11:44:55.999Z,5.40
2018-09-28T11:49:59.780Z,6.37
2018-09-28T11:55:03.498Z,7.00
2018-09-28T12:00:07.240Z,7.90
2018-09-28T12:05:11.016Z,7.70
2018-09-28T12:10:14.671Z,8.67
2018-09-28T12:15:18.415Z,6.33
2018-09-28T12:20:22.131Z,6.77
2018-09-28T12:25:25.936Z,3.13
2018-09-28T12:30:29.726Z,7.60
2018-09-28T12:35:33.429Z,4.90
2018-09-28T12:40:37.193Z,5.97
2018-09-28T12:45:40.926Z,5.27
2018-09-28T12:50:44.619Z,3.90
2018-09-28T12:55:48.330Z,4.60
2018-09-28T13:00:52.186Z,5.13
2018-09-28T13:05:55.831Z,11.80
2018-09-28T13:10:59.555Z,4.73
2018-09-28T13:16:03.343Z,6.67
2018-09-28T13:21:07.119Z,4.50
2018-09-28T13:26:10.883Z,5.40
2018-09-28T13:31:14.535Z,8.50
2018-09-28T13:36:18.262Z,3.03
2018-09-28T13:41:21.957Z,8.40
2018-09-28T13:46:25.689Z,5.90
2018-09-28T13:51:29.404Z,7.07
2018-09-28T13:56:33.133Z,4.60
2018-09-28T14:01:36.837Z,5.90
2018-09-28T14:06:40.615Z,3.90
2018-09-28T14:11:44.303Z,3.67
2018-09-28T14:16:48.147Z,4.30
2018-09-28T14:21:51.795Z,4.80
2018-09-28T14:26:55.551Z,8.80
2018-09-28T14:31:59.279Z,7.07
2018-09-28T14:37:03.007Z,9.87
2018-09-28T14:42:06.734Z,6.13
2018-09-28T14:47:10.431Z,4.67
2018-09-28T14:52:14.198Z,6.33
2018-09-28T14:57:17.880Z,2.97
2018-09-28T15:02:21.701Z,4.17
2018-09-28T15:07:25.381Z,2.30
2018-09-28T15:12:29.115Z,5.33
2018-09-28T15:17:32.795Z,3.40
2018-09-28T15:22:36.516Z,3.40
2018-09-28T15:27:40.220Z,5.60
2018-09-28T15:32:43.943Z,8.30
2018-09-28T15:37:47.744Z,7.03
2018-09-28T15:42:51.474Z,5.30
2018-09-28T15:47:55.192Z,5.03
2018-09-28T15:52:58.912Z,5.57
2018-09-28T15:58:02.635Z,3.80
2018-09-28T16:03:06.347Z,5.40
2018-09-28T16:08:10.099Z,6.07
2018-09-28T16:13:13.858Z,5.13
2018-09-28T16:18:17.595Z,2.37
2018-09-28T16:23:21.320Z,3.80
2018-09-28T16:28:25.071Z,9.13
2018-09-28T16:33:28.786Z,4.60
2018-09-28T16:38:32.499Z,5.37
2018-09-28T16:43:36.252Z,8.67
2018-09-28T16:48:40.053Z,7.67
2018-09-28T16:53:43.792Z,10.87
2018-09-28T16:58:47.592Z,1.70
2018-09-28T17:03:51.320Z,8.27
2018-09-28T17:08:55.139Z,4.50
2018-09-28T17:13:58.850Z,6.37
2018-09-28T17:19:02.820Z,7.53
2018-09-28T17:24:06.546Z,6.87
2018-09-28T17:29:10.276Z,5.83
2018-09-28T17:34:14.008Z,8.07
2018-09-28T17:39:17.746Z,10.00
2018-09-28T17:44:21.512Z,8.23
2018-09-28T17:49:25.306Z,9.37
2018-09-28T17:54:29.041Z,7.60
2018-09-28T17:59:32.811Z,7.60
2018-09-28T18:04:36.502Z,8.00
2018-09-28T18:09:40.321Z,5.60
2018-09-28T18:14:44.052Z,6.53
2018-09-28T18:19:47.957Z,5.30
2018-09-28T18:24:51.667Z,5.77
2018-09-28T18:29:55.496Z,9.60
2018-09-28T18:34:59.306Z,7.63
2018-09-28T18:40:03.047Z,10.10
2018-09-28T18:45:06.924Z,3.10
2018-09-28T18:50:10.692Z,6.13
2018-09-28T18:55:14.524Z,6.13
2018-09-28T19:00:18.327Z,6.90
2018-09-28T19:05:22.171Z,6.40
2018-09-28T19:10:25.887Z,5.60
2018-09-28T19:15:29.608Z,10.63
2018-09-28T19:20:33.328Z,5.40
2018-09-28T19:25:37.162Z,9.30
2018-09-28T19:30:40.994Z,11.93
2018-09-28T19:35:44.663Z,5.10
2018-09-28T19:40:48.439Z,3.63
2018-09-28T19:45:52.235Z,5.00
2018-09-28T19:50:56.300Z,13.67
2018-09-28T19:56:00.111Z,7.40
2018-09-28T20:01:03.896Z,5.07
2018-09-28T20:06:07.784Z,6.27
2018-09-28T20:11:11.519Z,4.43
2018-09-28T20:16:15.283Z,12.80
2018-09-28T20:21:19.128Z,7.10
2018-09-28T20:26:22.924Z,8.23
2018-09-28T20:31:26.796Z,7.83
2018-09-28T20:36:30.683Z,3.77
2018-09-28T20:41:34.518Z,6.13
2018-09-28T20:46:38.455Z,11.30
2018-09-28T20:51:42.247Z,7.50
2018-09-28T20:56:46.072Z,5.87
2018-09-28T21:01:49.891Z,4.20
2018-09-28T21:06:53.711Z,5.20
2018-09-28T21:11:57.432Z,5.13
2018-09-28T21:17:01.163Z,6.57
2018-09-28T21:22:04.879Z,3.40
2018-09-28T21:27:08.713Z,13.10
2018-09-28T21:32:12.419Z,5.13
2018-09-28T21:37:16.119Z,4.13
2018-09-28T21:42:19.839Z,6.17
2018-09-28T21:47:23.566Z,5.50
2018-09-28T21:52:28.223Z,5.37
2018-09-28T21:57:31.943Z,7.43
2018-09-28T22:02:35.800Z,7.97
2018-09-28T22:07:39.536Z,3.77
2018-09-28T22:12:43.327Z,15.10
2018-09-28T22:17:47.076Z,7.77
2018-09-28T22:22:51.203Z,3.37
2018-09-28T22:27:54.931Z,6.40
2018-09-28T22:32:58.642Z,6.80
2018-09-28T22:38:02.487Z,5.87
2018-09-28T22:43:06.376Z,9.40
2018-09-28T22:48:10.083Z,10.23
2018-09-28T22:53:14.304Z,9.27
2018-09-28T22:58:18.047Z,3.93
2018-09-28T23:03:21.855Z,7.40
2018-09-28T23:08:25.583Z,6.50
2018-09-28T23:13:29.320Z,5.90
2018-09-28T23:18:33.039Z,3.37
2018-09-28T23:23:36.739Z,2.60
2018-09-28T23:28:40.716Z,3.00
2018-09-28T23:33:44.460Z,10.70
2018-09-28T23:38:48.187Z,5.60
2018-09-28T23:43:51.891Z,7.90
2018-09-28T23:48:55.675Z,8.97
2018-09-28T23:54:00.375Z,5.50
2018-09-28T23:59:04.140Z,6.43
